Time;durP1;ratioP1;P1;durP2;ratioP2;P2;SDS_P1;SDS_P2;PMS_P1;PMS_P2;Temp;Humidity;BMP_temperature;BMP_pressure;BME280_temperature;BME280_humidity;BME280_pressure;Samples;Min_cycle;Max_cycle;Signal;HPM_P1;HPM_P2
2022/10/09 00:01:07;;;;;;;26.23;18.83;;;;;;;13.16;100.00;100839.22;4990962;28;20022;-65
2022/10/09 00:03:35;;;;;;;27.35;18.70;;;;;;;13.15;100.00;100837.47;4993017;28;20046;-76
2022/10/09 00:06:01;;;;;;;25.35;18.70;;;;;;;13.12;100.00;100832.38;4993269;28;20069;-76
2022/10/09 00:08:26;;;;;;;26.05;19.38;;;;;;;13.11;100.00;100833.38;4991116;28;20029;-64
2022/10/09 00:10:52;;;;;;;24.10;18.17;;;;;;;13.08;100.00;100837.19;4987094;28;20030;-65
2022/10/09 00:13:17;;;;;;;28.08;19.23;;;;;;;13.06;100.00;100827.56;4981325;28;20037;-64
2022/10/09 00:15:44;;;;;;;22.98;17.67;;;;;;;13.00;100.00;100822.72;4982596;28;20038;-64
2022/10/09 00:18:12;;;;;;;24.88;18.20;;;;;;;13.00;100.00;100828.94;4980483;28;20027;-65
2022/10/09 00:20:40;;;;;;;30.73;19.38;;;;;;;12.97;100.00;100822.97;4980786;28;20024;-65
2022/10/09 00:23:06;;;;;;;22.92;17.67;;;;;;;12.97;100.00;100831.88;4982242;28;20022;-65
2022/10/09 00:25:32;;;;;;;24.35;18.35;;;;;;;12.89;100.00;100823.66;4980514;28;20505;-64
2022/10/09 00:27:59;;;;;;;25.98;17.95;;;;;;;12.92;100.00;100822.50;4988920;28;20049;-65
2022/10/09 00:30:25;;;;;;;28.83;18.85;;;;;;;12.91;100.00;100823.50;4992946;28;20030;-76
2022/10/09 00:32:50;;;;;;;24.35;18.77;;;;;;;12.82;100.00;100817.09;4992390;28;20081;-65
2022/10/09 00:35:15;;;;;;;27.23;18.60;;;;;;;12.88;100.00;100827.34;4991769;28;20042;-65
2022/10/09 00:37:41;;;;;;;26.85;18.55;;;;;;;12.78;100.00;100813.00;4991258;28;20026;-64
2022/10/09 00:40:07;;;;;;;25.33;17.23;;;;;;;12.71;100.00;100809.13;4991095;28;20527;-64
2022/10/09 00:42:32;;;;;;;23.90;17.63;;;;;;;12.76;100.00;100819.47;4990720;28;20060;-64
2022/10/09 00:45:00;;;;;;;25.88;16.67;;;;;;;12.73;100.00;100820.63;4990936;28;20026;-65
2022/10/09 00:47:39;;;;;;;22.20;17.08;;;;;;;12.70;100.00;100818.19;4991059;28;20033;-64
2022/10/09 00:50:10;;;;;;;23.45;17.27;;;;;;;12.68;100.00;100814.81;4990709;28;20392;-65
2022/10/09 00:52:36;;;;;;;25.83;17.77;;;;;;;12.63;100.00;100814.34;4990778;28;20429;-65
2022/10/09 00:55:03;;;;;;;24.70;17.88;;;;;;;12.49;100.00;100801.25;4991375;28;20026;-64
2022/10/09 00:57:31;;;;;;;28.33;17.65;;;;;;;12.53;100.00;100816.16;4990819;28;20049;-64
2022/10/09 01:00:01;;;;;;;23.05;16.38;;;;;;;12.52;100.00;100822.53;4990864;28;20064;-64
2022/10/09 01:02:26;;;;;;;20.17;16.40;;;;;;;12.47;100.00;100814.00;4991266;28;20072;-65
2022/10/09 01:04:52;;;;;;;22.60;16.85;;;;;;;12.45;100.00;100821.34;4990959;28;20038;-64
2022/10/09 01:07:55;;;;;;;28.58;17.75;;;;;;;12.40;100.00;100818.22;4991331;28;20029;-64
2022/10/09 01:10:42;;;;;;;22.10;16.02;;;;;;;12.38;100.00;100816.66;4990852;28;20022;-64
2022/10/09 01:13:16;;;;;;;23.50;16.92;;;;;;;12.20;100.00;100799.41;4990718;28;20038;-65
2022/10/09 01:15:44;;;;;;;25.33;17.63;;;;;;;12.31;100.00;100819.00;4990600;28;20421;-65
2022/10/09 01:18:23;;;;;;;25.52;18.50;;;;;;;12.27;100.00;100816.72;4990928;28;20397;-65
2022/10/09 01:21:25;;;;;;;25.77;17.63;;;;;;;12.23;100.00;100817.97;4991335;28;20038;-76
2022/10/09 01:24:12;;;;;;;21.95;17.27;;;;;;;12.21;100.00;100817.22;4986505;28;20105;-75
2022/10/09 01:27:00;;;;;;;23.63;17.63;;;;;;;12.15;100.00;100821.31;4972233;28;20038;-76
2022/10/09 01:29:33;;;;;;;23.92;18.15;;;;;;;12.09;100.00;100810.25;4986990;28;20043;-76
2022/10/09 01:32:00;;;;;;;22.35;16.98;;;;;;;12.12;100.00;100823.44;4971981;28;20386;-76
2022/10/09 01:34:27;;;;;;;22.92;16.80;;;;;;;12.09;100.00;100823.69;4970930;28;20027;-76
2022/10/09 01:36:55;;;;;;;21.63;17.30;;;;;;;11.98;100.00;100815.69;4971885;28;20078;-76
2022/10/09 01:39:22;;;;;;;21.98;16.50;;;;;;;12.00;100.00;100819.09;4972049;28;20038;-76
2022/10/09 01:41:50;;;;;;;20.48;16.55;;;;;;;11.92;100.00;100816.19;4972306;28;20027;-76
2022/10/09 01:44:24;;;;;;;22.60;17.58;;;;;;;11.88;100.00;100812.94;4971738;28;20059;-76
2022/10/09 01:46:50;;;;;;;23.52;17.50;;;;;;;11.89;100.00;100811.94;4971935;28;20085;-76
2022/10/09 01:49:28;;;;;;;23.98;17.88;;;;;;;11.95;100.00;100826.69;4971944;28;20454;-76
2022/10/09 01:52:01;;;;;;;25.60;16.55;;;;;;;11.92;100.00;100830.50;4971327;28;20035;-76
2022/10/09 01:54:51;;;;;;;23.38;18.05;;;;;;;11.90;100.00;100840.53;4972173;28;20062;-76
2022/10/09 01:57:26;;;;;;;22.95;17.88;;;;;;;11.72;100.00;100811.69;4976106;28;20093;-76
2022/10/09 01:59:54;;;;;;;25.58;17.17;;;;;;;11.88;100.00;100836.25;4991443;28;20359;-76
2022/10/09 02:02:20;;;;;;;23.20;17.52;;;;;;;11.75;100.00;100822.16;4990970;28;20022;-76
2022/10/09 02:04:48;;;;;;;22.98;17.52;;;;;;;11.62;100.00;100802.69;4991421;28;20037;-76
2022/10/09 02:07:15;;;;;;;25.98;18.75;;;;;;;11.82;100.00;100839.47;4991118;28;20088;-76
2022/10/09 02:09:43;;;;;;;24.42;19.23;;;;;;;11.75;100.00;100828.41;4990945;28;20026;-76
2022/10/09 02:12:10;;;;;;;27.23;19.77;;;;;;;11.85;100.00;100855.34;4991123;28;20031;-76
2022/10/09 02:14:36;;;;;;;21.92;17.77;;;;;;;11.77;100.00;100834.47;4990900;28;20030;-76
2022/10/09 02:17:12;;;;;;;22.95;17.75;;;;;;;11.87;100.00;100850.69;4990870;28;20034;-76
2022/10/09 02:19:46;;;;;;;25.27;18.15;;;;;;;11.89;100.00;100852.25;4990861;28;20030;-77
2022/10/09 02:22:26;;;;;;;23.65;18.25;;;;;;;11.83;100.00;100846.56;4990829;28;20022;-76
2022/10/09 02:24:53;;;;;;;23.55;17.08;;;;;;;11.73;100.00;100826.84;4990744;28;20057;-77
2022/10/09 02:27:20;;;;;;;26.27;16.35;;;;;;;11.76;100.00;100835.47;4991213;28;20114;-76
2022/10/09 02:29:47;;;;;;;21.42;17.80;;;;;;;11.82;100.00;100852.91;4990683;28;20473;-77
2022/10/09 02:32:13;;;;;;;24.08;18.13;;;;;;;11.77;100.00;100839.03;4987636;28;20061;-65
2022/10/09 02:34:39;;;;;;;20.95;16.35;;;;;;;11.81;100.00;100845.84;4989156;28;20518;-65
2022/10/09 02:37:05;;;;;;;23.75;17.17;;;;;;;11.82;100.00;100863.66;4989017;28;20476;-65
2022/10/09 02:39:30;;;;;;;21.98;18.27;;;;;;;11.81;100.00;100856.59;4989325;28;20030;-65
2022/10/09 02:41:56;;;;;;;23.70;18.27;;;;;;;11.74;100.00;100847.34;4989696;28;20022;-65
2022/10/09 02:44:21;;;;;;;24.70;18.60;;;;;;;11.82;100.00;100860.97;4989955;28;20654;-65
2022/10/09 02:46:46;;;;;;;23.90;19.60;;;;;;;11.82;100.00;100863.66;4989690;28;20050;-65
2022/10/09 02:49:12;;;;;;;27.70;19.92;;;;;;;11.76;100.00;100850.72;4988423;28;20022;-65
2022/10/09 02:51:37;;;;;;;27.08;20.48;;;;;;;11.72;100.00;100838.53;4988261;28;20140;-65
2022/10/09 02:54:03;;;;;;;25.35;19.10;;;;;;;11.88;100.00;100864.00;4989627;28;20573;-65
2022/10/09 02:56:29;;;;;;;26.55;20.52;;;;;;;11.89;100.00;100862.16;4988727;28;20026;-65
2022/10/09 02:58:55;;;;;;;30.17;21.23;;;;;;;11.89;100.00;100862.16;4989105;28;20038;-65
2022/10/09 03:01:20;;;;;;;25.48;20.80;;;;;;;11.84;100.00;100856.34;4989504;28;20409;-65
2022/10/09 03:03:46;;;;;;;29.70;22.17;;;;;;;11.80;100.00;100838.75;4988762;28;20032;-65
2022/10/09 03:06:14;;;;;;;30.20;20.92;;;;;;;11.88;100.00;100850.56;4988521;28;20084;-65
2022/10/09 03:08:42;;;;;;;27.75;20.92;;;;;;;11.93;100.00;100856.38;4988973;28;20468;-65
2022/10/09 03:11:07;;;;;;;30.27;20.98;;;;;;;11.90;100.00;100851.28;4989003;28;20036;-65
2022/10/09 03:13:33;;;;;;;27.83;21.67;;;;;;;11.89;100.00;100856.78;4989544;28;20034;-65
2022/10/09 03:16:07;;;;;;;29.50;21.35;;;;;;;11.88;100.00;100857.78;4992115;28;20026;-66
2022/10/09 03:18:33;;;;;;;27.75;21.52;;;;;;;11.93;100.00;100866.31;4991473;28;20389;-65
2022/10/09 03:20:59;;;;;;;26.23;20.08;;;;;;;11.72;100.00;100835.84;4993041;28;20091;-66
2022/10/09 03:23:25;;;;;;;26.92;21.90;;;;;;;11.80;100.00;100842.28;4993212;28;20454;-65
2022/10/09 03:25:57;;;;;;;27.17;21.42;;;;;;;11.80;100.00;100855.72;4993003;28;20037;-65
2022/10/09 03:28:23;;;;;;;28.60;21.17;;;;;;;11.85;100.00;100852.66;4993221;28;20034;-76
2022/10/09 03:30:49;;;;;;;31.10;21.77;;;;;;;11.84;100.00;100873.31;4992349;28;20030;-76
2022/10/09 03:33:14;;;;;;;27.80;22.27;;;;;;;11.75;100.00;100854.41;4993572;28;20374;-76
2022/10/09 03:35:40;;;;;;;33.03;22.38;;;;;;;11.85;100.00;100866.09;4993868;28;20140;-76
2022/10/09 03:38:06;;;;;;;31.58;23.38;;;;;;;11.79;100.00;100864.78;4986816;28;20034;-76
2022/10/09 03:40:31;;;;;;;29.40;22.80;;;;;;;11.83;100.00;100866.22;4980112;28;20022;-76
2022/10/09 03:42:57;;;;;;;30.35;22.50;;;;;;;11.88;100.00;100880.13;4984852;28;20046;-76
2022/10/09 03:45:22;;;;;;;31.17;22.75;;;;;;;11.85;100.00;100871.47;4984823;28;20014;-76
2022/10/09 03:47:48;;;;;;;28.60;22.80;;;;;;;11.84;100.00;100880.53;4980078;28;20058;-76
2022/10/09 03:50:13;;;;;;;29.90;23.15;;;;;;;11.76;100.00;100865.03;4981399;28;20042;-76
2022/10/09 03:52:39;;;;;;;28.75;21.55;;;;;;;11.79;100.00;100888.09;4979118;28;20018;-76
2022/10/09 03:55:05;;;;;;;31.00;22.67;;;;;;;11.76;100.00;100893.72;4984886;28;20026;-76
2022/10/09 03:57:31;;;;;;;27.90;21.90;;;;;;;11.61;100.00;100878.88;4982804;28;20035;-76
2022/10/09 03:59:56;;;;;;;31.30;22.63;;;;;;;11.69;100.00;100900.59;4981696;28;20045;-76
2022/10/09 04:02:22;;;;;;;32.25;22.33;;;;;;;11.61;100.00;100897.69;4976539;28;20037;-76
2022/10/09 04:04:47;;;;;;;35.42;22.42;;;;;;;11.62;100.00;100910.16;4987198;28;20041;-76
2022/10/09 04:07:13;;;;;;;28.42;22.35;;;;;;;11.57;100.00;100903.31;4983670;28;20027;-76
2022/10/09 04:09:38;;;;;;;31.42;23.30;;;;;;;11.46;100.00;100889.06;4985107;28;20041;-76
2022/10/09 04:12:03;;;;;;;31.30;21.45;;;;;;;11.48;100.00;100904.06;4978661;28;20049;-76
2022/10/09 04:14:29;;;;;;;30.63;23.70;;;;;;;11.42;100.00;100906.41;4984780;28;20154;-76
2022/10/09 04:16:54;;;;;;;32.20;24.00;;;;;;;11.42;100.00;100911.78;4986634;28;20058;-76
2022/10/09 04:19:20;;;;;;;32.22;22.77;;;;;;;11.41;100.00;100916.28;4985654;28;20462;-76
2022/10/09 04:21:45;;;;;;;29.25;21.48;;;;;;;11.38;100.00;100921.03;4979809;28;20097;-76
2022/10/09 04:24:11;;;;;;;31.38;21.85;;;;;;;11.29;100.00;100911.91;4973407;28;20466;-76
2022/10/09 04:26:36;;;;;;;27.35;21.83;;;;;;;11.35;100.00;100919.47;4971923;28;20026;-76
2022/10/09 04:29:02;;;;;;;31.40;22.33;;;;;;;11.30;100.00;100913.63;4973487;28;20034;-76
2022/10/09 04:31:27;;;;;;;30.20;22.65;;;;;;;11.28;100.00;100914.72;4973517;28;20126;-76
2022/10/09 04:33:55;;;;;;;31.65;23.88;;;;;;;11.29;100.00;100922.66;4980201;28;20105;-76
2022/10/09 04:36:21;;;;;;;31.25;23.38;;;;;;;11.24;100.00;100910.59;4992735;28;20089;-76
2022/10/09 04:38:46;;;;;;;31.05;23.52;;;;;;;11.09;100.00;100895.69;4992702;28;20440;-76
2022/10/09 04:41:12;;;;;;;35.22;23.35;;;;;;;11.11;100.00;100908.03;4992316;28;20029;-76
2022/10/09 04:43:38;;;;;;;34.15;24.33;;;;;;;11.21;100.00;100917.06;4991922;28;20165;-65
2022/10/09 04:46:10;;;;;;;31.58;25.17;;;;;;;11.22;100.00;100929.50;4990970;28;20032;-65
2022/10/09 04:48:40;;;;;;;35.45;25.92;;;;;;;11.22;100.00;100924.13;4991285;28;20038;-65
2022/10/09 04:51:06;;;;;;;33.00;25.02;;;;;;;11.19;100.00;100910.94;4991485;28;20038;-76
2022/10/09 04:53:33;;;;;;;32.75;26.30;;;;;;;11.18;100.00;100920.00;4991312;28;20377;-76
2022/10/09 04:56:02;;;;;;;32.92;25.20;;;;;;;11.16;100.00;100918.41;4992384;28;20485;-76
2022/10/09 04:58:29;;;;;;;34.72;26.52;;;;;;;11.16;100.00;100924.63;4991212;28;20035;-75
2022/10/09 05:00:55;;;;;;;33.40;25.60;;;;;;;11.12;100.00;100923.16;4992400;28;20394;-76
2022/10/09 05:03:21;;;;;;;33.38;24.92;;;;;;;11.14;100.00;100926.59;4992643;28;20041;-76
2022/10/09 05:05:46;;;;;;;38.40;25.77;;;;;;;11.16;100.00;100923.78;4991420;28;20038;-65
2022/10/09 05:08:12;;;;;;;32.42;24.33;;;;;;;11.17;100.00;100933.53;4989873;28;20038;-65
2022/10/09 05:10:37;;;;;;;35.05;25.83;;;;;;;11.08;100.00;100924.41;4991139;28;20038;-65
2022/10/09 05:13:03;;;;;;;34.63;25.45;;;;;;;11.13;100.00;100935.59;4989712;28;20120;-65
2022/10/09 05:15:28;;;;;;;35.05;26.08;;;;;;;11.13;100.00;100924.88;4991134;28;20026;-65
2022/10/09 05:17:54;;;;;;;37.90;27.15;;;;;;;11.00;100.00;100902.66;4975642;28;20031;-65
2022/10/09 05:20:19;;;;;;;36.28;27.10;;;;;;;11.16;100.00;100930.00;4970547;28;20126;-66
2022/10/09 05:22:46;;;;;;;37.20;27.80;;;;;;;11.17;100.00;100937.09;4984863;28;20022;-65
2022/10/09 05:25:11;;;;;;;33.05;26.50;;;;;;;11.20;100.00;100933.28;4989583;28;20034;-65
2022/10/09 05:27:37;;;;;;;37.05;28.10;;;;;;;11.22;100.00;100920.56;4990389;28;20606;-65
2022/10/09 05:30:04;;;;;;;36.50;28.92;;;;;;;11.24;100.00;100924.00;4990863;28;20042;-65
2022/10/09 05:32:29;;;;;;;35.88;28.95;;;;;;;11.30;100.00;100937.81;4990688;28;20026;-65
2022/10/09 05:34:55;;;;;;;34.95;26.75;;;;;;;11.34;100.00;100939.25;4990700;28;20022;-66
2022/10/09 05:37:20;;;;;;;38.40;28.15;;;;;;;11.26;100.00;100911.31;4990611;28;20050;-65
2022/10/09 05:39:45;;;;;;;36.22;27.92;;;;;;;11.32;100.00;100925.09;4990289;28;20026;-65
2022/10/09 05:42:11;;;;;;;37.72;28.13;;;;;;;11.42;100.00;100934.09;4990419;28;20084;-65
2022/10/09 05:44:36;;;;;;;36.78;27.10;;;;;;;11.48;100.00;100947.03;4990314;28;20050;-65
2022/10/09 05:47:02;;;;;;;34.50;28.70;;;;;;;11.54;100.00;100954.59;4990660;28;20053;-65
2022/10/09 05:49:27;;;;;;;39.60;28.45;;;;;;;11.60;100.00;100947.88;4989415;28;20523;-65
2022/10/09 05:51:54;;;;;;;39.20;29.33;;;;;;;11.46;100.00;100927.53;4990747;28;20030;-65
2022/10/09 05:54:20;;;;;;;37.70;30.02;;;;;;;11.73;100.00;100975.47;4990601;28;20022;-65
2022/10/09 05:56:46;;;;;;;35.67;29.70;;;;;;;11.76;100.00;100980.59;4990823;28;20527;-66
2022/10/09 05:59:20;;;;;;;38.20;30.15;;;;;;;11.88;100.00;100992.16;4985721;28;20042;-65
2022/10/09 06:01:48;;;;;;;37.35;29.02;;;;;;;11.98;100.00;100988.59;4970566;28;20109;-65
2022/10/09 06:04:19;;;;;;;38.92;29.65;;;;;;;12.03;100.00;100989.06;4970482;28;20034;-65
2022/10/09 06:06:47;;;;;;;39.92;32.05;;;;;;;12.18;100.00;100998.53;4970989;28;20101;-65
2022/10/09 06:09:14;;;;;;;34.38;28.95;;;;;;;12.23;100.00;100976.66;4970681;28;20023;-65
2022/10/09 06:11:40;;;;;;;38.78;30.67;;;;;;;12.42;100.00;100974.97;4970854;28;20034;-65
2022/10/09 06:14:09;;;;;;;38.85;31.88;;;;;;;12.58;100.00;100986.09;4969568;28;20355;-65
2022/10/09 06:16:37;;;;;;;40.05;32.17;;;;;;;12.52;100.00;100958.88;4972303;28;20022;-65
2022/10/09 06:19:04;;;;;;;46.63;32.40;;;;;;;12.88;100.00;100994.25;4989812;28;20042;-65
2022/10/09 06:21:29;;;;;;;40.42;32.38;;;;;;;12.90;100.00;100984.19;4990143;28;20037;-65
2022/10/09 06:23:57;;;;;;;40.03;32.28;;;;;;;13.18;100.00;101004.22;4990033;28;20034;-65
2022/10/09 06:26:24;;;;;;;35.45;29.42;;;;;;;13.27;100.00;101003.41;4990329;28;20027;-65
2022/10/09 06:28:51;;;;;;;44.00;34.33;;;;;;;13.37;100.00;101010.56;4990100;28;20042;-65
2022/10/09 06:31:22;;;;;;;42.42;35.70;;;;;;;13.55;100.00;100998.13;4990155;28;20026;-65
2022/10/09 06:33:49;;;;;;;38.47;32.90;;;;;;;13.67;100.00;101004.25;4991328;28;20027;-75
2022/10/09 06:36:20;;;;;;;41.13;32.78;;;;;;;13.85;100.00;101001.75;4990182;28;20026;-76
2022/10/09 06:38:47;;;;;;;42.50;35.08;;;;;;;13.88;100.00;100998.78;4990310;28;20042;-75
2022/10/09 06:41:18;;;;;;;43.50;32.78;;;;;;;14.18;100.00;101004.09;4991874;28;20027;-75
2022/10/09 06:43:49;;;;;;;37.55;32.20;;;;;;;14.28;100.00;100989.63;4991104;28;20544;-76
2022/10/09 06:46:15;;;;;;;44.53;34.28;;;;;;;14.45;100.00;100994.28;4991671;28;20038;-75
2022/10/09 06:48:40;;;;;;;34.22;30.50;;;;;;;14.72;100.00;100998.97;4993489;28;20030;-75
2022/10/09 06:51:09;;;;;;;36.30;31.02;;;;;;;14.91;100.00;101017.84;4994236;28;20069;-75
2022/10/09 06:53:40;;;;;;;40.95;32.38;;;;;;;15.04;100.00;101015.66;4993119;28;20096;-65
2022/10/09 06:56:07;;;;;;;38.95;31.10;;;;;;;15.16;100.00;101017.22;4993647;28;20030;-65
2022/10/09 06:58:33;;;;;;;37.20;29.75;;;;;;;15.26;100.00;101015.34;4993693;28;20062;-65
2022/10/09 07:01:05;;;;;;;34.95;29.30;;;;;;;15.48;100.00;101023.94;4984865;28;20050;-65
2022/10/09 07:03:30;;;;;;;36.83;29.33;;;;;;;15.52;100.00;101013.69;4991532;28;20030;-65
2022/10/09 07:06:12;;;;;;;34.92;29.30;;;;;;;15.75;100.00;101033.94;5001539;28;20493;-65
2022/10/09 07:08:39;;;;;;;34.42;29.17;;;;;;;15.89;100.00;101038.81;4981903;28;20191;-65
2022/10/09 07:11:10;;;;;;;32.50;28.00;;;;;;;16.07;100.00;101044.28;5002664;28;20070;-75
2022/10/09 07:13:36;;;;;;;33.00;28.40;;;;;;;16.29;100.00;101041.13;4994204;28;20512;-75
2022/10/09 07:16:02;;;;;;;35.17;29.75;;;;;;;16.58;100.00;101037.25;5003031;28;20042;-76
2022/10/09 07:18:27;;;;;;;32.97;28.35;;;;;;;16.82;99.98;101028.44;4991846;28;20105;-75
2022/10/09 07:20:52;;;;;;;31.50;26.23;;;;;;;17.12;97.05;101030.72;4995576;28;20520;-75
2022/10/09 07:23:18;;;;;;;26.70;23.27;;;;;;;17.47;93.97;101027.91;4997831;28;20023;-66
2022/10/09 07:25:43;;;;;;;26.13;23.38;;;;;;;17.98;91.18;101035.94;4996748;28;20046;-65
2022/10/09 07:28:09;;;;;;;28.73;22.67;;;;;;;18.60;86.67;101034.56;5006272;28;20048;-66
2022/10/09 07:30:37;;;;;;;24.42;20.85;;;;;;;19.31;80.44;101036.41;4991193;28;20048;-66
2022/10/09 07:33:03;;;;;;;22.80;19.23;;;;;;;20.04;75.02;101034.28;4998060;28;20030;-66
2022/10/09 07:35:28;;;;;;;24.38;18.70;;;;;;;20.26;71.47;101022.59;4997390;28;20537;-65
2022/10/09 07:37:54;;;;;;;20.05;17.98;;;;;;;20.33;70.97;101034.47;5005458;28;20071;-66
2022/10/09 07:40:19;;;;;;;20.55;18.23;;;;;;;20.59;69.57;101025.94;4993154;28;20034;-65
2022/10/09 07:42:44;;;;;;;20.38;16.75;;;;;;;21.22;66.84;101040.94;4993776;28;20050;-66
2022/10/09 07:45:10;;;;;;;18.15;15.88;;;;;;;21.53;65.00;101043.50;5005471;28;20037;-66
2022/10/09 07:47:35;;;;;;;15.68;13.73;;;;;;;21.87;63.66;101043.81;4995436;28;20046;-66
2022/10/09 07:50:01;;;;;;;16.65;13.27;;;;;;;22.35;61.18;101043.19;4997629;28;20022;-66
2022/10/09 07:52:26;;;;;;;15.40;13.77;;;;;;;22.65;59.57;101035.72;4996040;28;20508;-66
2022/10/09 07:54:51;;;;;;;13.38;12.07;;;;;;;23.09;57.94;101041.84;5008640;28;20030;-65
2022/10/09 07:57:17;;;;;;;16.88;11.98;;;;;;;23.45;56.85;101046.16;5004857;28;20413;-66
2022/10/09 07:59:46;;;;;;;23.30;12.98;;;;;;;23.76;55.87;101046.53;4993709;28;20038;-66
2022/10/09 08:02:11;;;;;;;18.83;12.93;;;;;;;23.96;54.25;101049.44;4994492;28;20038;-66
2022/10/09 08:04:36;;;;;;;17.77;11.73;;;;;;;24.30;52.77;101036.50;5001671;28;20524;-66
2022/10/09 08:07:02;;;;;;;13.13;11.63;;;;;;;24.44;52.35;101042.88;5001565;28;20042;-66
2022/10/09 08:09:27;;;;;;;13.02;11.63;;;;;;;24.03;52.82;101050.31;5001116;28;20036;-66
2022/10/09 08:11:53;;;;;;;12.95;11.45;;;;;;;23.44;54.60;101041.69;4993678;28;20108;-66
2022/10/09 08:14:18;;;;;;;16.67;11.43;;;;;;;22.91;56.73;101047.78;5006172;28;20120;-66
2022/10/09 08:16:43;;;;;;;15.35;12.25;;;;;;;22.34;58.76;101055.13;4995658;28;20038;-65
2022/10/09 08:19:09;;;;;;;12.95;11.55;;;;;;;21.90;59.76;101036.06;4999007;28;20054;-66
2022/10/09 08:21:34;;;;;;;19.02;11.60;;;;;;;21.44;60.41;101040.03;5001874;28;20087;-66
2022/10/09 08:24:00;;;;;;;14.75;12.05;;;;;;;21.18;61.39;101038.78;4993160;28;20465;-66
2022/10/09 08:26:29;;;;;;;13.65;11.18;;;;;;;20.89;63.27;101063.22;5006134;28;20101;-66
2022/10/09 08:28:57;;;;;;;16.98;11.90;;;;;;;20.71;64.93;101063.53;5002098;28;20042;-66
2022/10/09 08:31:23;;;;;;;14.93;11.70;;;;;;;20.55;64.61;101063.63;4999847;28;20073;-66
2022/10/09 08:33:54;;;;;;;14.32;11.50;;;;;;;20.42;65.91;101071.56;4993358;28;20461;-67
2022/10/09 08:36:20;;;;;;;16.63;12.48;;;;;;;20.31;66.58;101076.56;5005467;28;20029;-76
2022/10/09 08:38:46;;;;;;;14.20;12.05;;;;;;;20.27;65.97;101081.50;4990584;28;20049;-76
2022/10/09 08:41:36;;;;;;;19.30;11.38;;;;;;;20.17;66.02;101084.47;5000170;28;20030;-75
2022/10/09 08:44:20;;;;;;;15.68;10.95;;;;;;;20.15;65.08;101093.81;4993250;28;20058;-76
2022/10/09 08:46:45;;;;;;;20.05;11.40;;;;;;;20.31;65.91;101084.75;5009231;28;20030;-76
2022/10/09 08:49:24;;;;;;;14.70;11.10;;;;;;;20.52;64.79;101083.06;4998193;28;20060;-76
2022/10/09 08:51:51;;;;;;;11.85;9.85;;;;;;;21.67;60.50;101080.91;4994396;28;20488;-75
2022/10/09 08:54:23;;;;;;;10.88;9.73;;;;;;;23.53;54.23;101062.41;4992119;28;20247;-75
2022/10/09 08:56:49;;;;;;;13.68;10.23;;;;;;;24.98;49.61;101059.25;5004080;28;20133;-75
2022/10/09 08:59:14;;;;;;;14.15;9.52;;;;;;;26.32;46.06;101047.41;4998127;28;20433;-75
2022/10/09 09:01:46;;;;;;;10.52;9.38;;;;;;;27.57;43.22;101059.22;4993747;28;20026;-75
2022/10/09 09:04:34;;;;;;;14.77;9.40;;;;;;;28.73;40.81;101060.00;5005748;28;20053;-75
2022/10/09 09:07:08;;;;;;;11.23;8.10;;;;;;;29.56;38.83;101059.69;4990949;28;20085;-76
2022/10/09 09:10:01;;;;;;;14.40;9.38;;;;;;;30.11;37.58;101060.16;5002036;28;20503;-75
2022/10/09 09:13:15;;;;;;;13.98;8.90;;;;;;;30.58;36.29;101059.78;4999306;28;20026;-75
2022/10/09 09:15:52;;;;;;;11.07;7.97;;;;;;;31.15;35.46;101070.81;4963888;28;20073;-75
2022/10/09 09:18:36;;;;;;;13.52;8.40;;;;;;;31.14;35.16;101066.38;4984564;28;20032;-76
2022/10/09 09:21:23;;;;;;;8.73;7.57;;;;;;;31.32;35.39;101080.84;4989079;28;20116;-76
2022/10/09 09:23:48;;;;;;;10.00;8.85;;;;;;;31.13;35.11;101076.63;4989740;28;20786;-75
2022/10/09 09:26:19;;;;;;;13.52;7.90;;;;;;;31.21;35.29;101083.69;4993948;28;20073;-75
2022/10/09 09:28:48;;;;;;;11.23;8.15;;;;;;;31.27;35.33;101082.72;4987643;28;20044;-65
2022/10/09 09:31:22;;;;;;;11.23;7.57;;;;;;;31.42;34.98;101077.41;4986779;28;20116;-66
2022/10/09 09:34:27;;;;;;;11.80;7.55;;;;;;;31.61;34.75;101088.00;4989012;28;20131;-66
2022/10/09 09:36:59;;;;;;;17.45;7.72;;;;;;;31.86;33.83;101095.91;4965052;28;20482;-75
2022/10/09 09:39:27;;;;;;;11.30;8.83;;;;;;;32.05;33.63;101094.50;4988021;28;20478;-74
2022/10/09 09:42:01;;;;;;;11.95;8.43;;;;;;;31.98;33.30;101102.19;4987488;28;20054;-75
2022/10/09 09:44:30;;;;;;;9.63;8.13;;;;;;;31.83;33.51;101093.63;4993051;28;20050;-75
2022/10/09 09:46:56;;;;;;;17.10;8.40;;;;;;;32.04;33.31;101099.22;4988387;28;20504;-75
2022/10/09 09:49:26;;;;;;;9.23;8.20;;;;;;;32.21;32.86;101082.50;4987988;28;20058;-75
2022/10/09 09:51:53;;;;;;;13.82;8.70;;;;;;;32.31;32.77;101083.47;4987160;28;20050;-75
2022/10/09 09:54:23;;;;;;;11.38;8.15;;;;;;;32.20;33.08;101091.91;5005622;28;20030;-74
2022/10/09 09:56:50;;;;;;;9.48;8.45;;;;;;;32.22;32.95;101078.63;4996409;28;20073;-75
2022/10/09 09:59:41;;;;;;;12.25;7.78;;;;;;;32.22;32.99;101093.38;4988917;28;20042;-75
2022/10/09 10:02:10;;;;;;;12.95;8.30;;;;;;;32.60;32.49;101087.75;4987423;28;20038;-75
2022/10/09 10:04:36;;;;;;;13.27;8.40;;;;;;;32.87;32.43;101089.72;4987358;28;20030;-76
2022/10/09 10:07:01;;;;;;;10.40;8.50;;;;;;;33.03;32.18;101089.63;4988099;28;20423;-74
2022/10/09 10:09:27;;;;;;;9.20;8.13;;;;;;;33.22;31.63;101096.50;4987490;28;20057;-76
2022/10/09 10:12:00;;;;;;;10.95;8.68;;;;;;;33.09;31.64;101094.16;4987639;28;20121;-75
2022/10/09 10:14:27;;;;;;;17.17;9.07;;;;;;;33.18;31.93;101097.28;5004690;28;20495;-75
2022/10/09 10:16:54;;;;;;;9.68;8.60;;;;;;;33.38;31.63;101087.22;4996862;28;20106;-75
2022/10/09 10:19:25;;;;;;;10.43;8.90;;;;;;;32.98;31.77;101077.63;4978325;28;20572;-76
2022/10/09 10:22:03;;;;;;;10.88;8.43;;;;;;;33.01;31.80;101086.25;4988846;28;20500;-75
2022/10/09 10:24:37;;;;;;;13.05;8.50;;;;;;;32.63;32.34;101081.66;4992024;28;20046;-74
2022/10/09 10:27:32;;;;;;;10.50;8.40;;;;;;;32.35;32.66;101079.13;4992362;28;20038;-75
2022/10/09 10:30:01;;;;;;;9.60;7.90;;;;;;;31.90;33.74;101072.94;4990821;28;20061;-74
2022/10/09 10:32:58;;;;;;;10.95;9.00;;;;;;;30.92;35.01;101073.72;5010054;28;20033;-65
2022/10/09 10:35:27;;;;;;;10.02;8.82;;;;;;;29.65;37.10;101074.00;5011213;28;20045;-65
2022/10/09 10:38:17;;;;;;;9.57;8.70;;;;;;;28.41;39.56;101087.78;4999286;28;20018;-65
2022/10/09 10:40:51;;;;;;;11.32;9.15;;;;;;;27.48;41.56;101087.31;4990598;28;21132;-65
2022/10/09 10:43:41;;;;;;;12.60;8.75;;;;;;;27.03;42.21;101085.75;4992104;28;20053;-65
2022/10/09 10:46:30;;;;;;;11.90;10.25;;;;;;;25.63;45.71;101086.75;5006589;28;20466;-65
2022/10/09 10:48:58;;;;;;;13.45;9.70;;;;;;;25.10;46.95;101082.28;4995515;28;20040;-65
2022/10/09 10:51:38;;;;;;;14.07;9.75;;;;;;;24.48;48.84;101066.91;4999580;28;20467;-65
2022/10/09 10:54:27;;;;;;;13.77;10.07;;;;;;;24.15;50.09;101090.63;5010509;28;20042;-65
2022/10/09 10:57:05;;;;;;;10.80;9.48;;;;;;;23.60;51.36;101085.22;4988432;28;20460;-65
2022/10/09 11:00:04;;;;;;;13.80;9.50;;;;;;;23.29;52.80;101090.25;4990601;28;20121;-65
2022/10/09 11:02:40;;;;;;;15.50;10.18;;;;;;;22.88;53.17;101091.94;4988004;28;20020;-65
2022/10/09 11:05:42;;;;;;;14.82;10.48;;;;;;;22.59;53.40;101086.59;4991393;28;20049;-65
2022/10/09 11:08:29;;;;;;;10.43;8.85;;;;;;;22.48;54.68;101094.41;4975608;28;20125;-65
2022/10/09 11:11:01;;;;;;;14.82;9.35;;;;;;;22.30;55.21;101086.63;4991988;28;20046;-65
2022/10/09 11:13:45;;;;;;;11.60;8.90;;;;;;;22.36;56.03;101085.88;4990321;28;20493;-65
2022/10/09 11:16:42;;;;;;;16.13;9.52;;;;;;;22.30;55.85;101095.69;4991738;28;20081;-65
2022/10/09 11:19:13;;;;;;;11.23;9.20;;;;;;;22.24;55.45;101090.13;4991741;28;20485;-65